Flight Track Log - Related Links

Times and Time Zones

All times are in EDT time to prevent confusion due to time zone crossing. See the PDT4226 flight status page for this flight to view local times or setup timezone preferences in your user account.


Time Position Orientation Groundspeed Altitude Reporting Facility
EDT Latitude Longitude Course Direction KTS MPH feet Rate Location/Type
Mon 01:50:00 PM 41.8612 -75.8663 159° South  Level Estimated
Mon 01:51:00 PM 41.8033 -75.8476 161° South  Level Estimated
Mon 01:52:00 PM 41.7453 -75.8297 167° South  Level FlightAware Approximate
Mon 01:53:00 PM 41.6872 -75.8118 167° South  Level FlightAware Approximate
Mon 01:54:00 PM 41.6292 -75.7940 167° South  Level FlightAware Approximate
Mon 01:55:00 PM 41.5713 -75.7753 162° South  Level Estimated
Mon 01:56:00 PM 41.5177 -75.7555 165° South  Level FlightAware Approximate
Mon 01:57:00 PM 41.4641 -75.7358 165° South  Level FlightAware Approximate
Mon 01:58:00 PM 41.4105 -75.7162 165° South  Level FlightAware Approximate
Mon 01:59:00 PM 41.3569 -75.6965 165° South  Level FlightAware Approximate
Mon 02:00:00 PM 41.3028 -75.6796 163° South  Level Estimated
Mon 02:01:00 PM 41.2496 -75.6585 163° South  Level FlightAware Approximate
Mon 02:02:00 PM 41.1963 -75.6375 163° South  Level FlightAware Approximate
Mon 02:03:00 PM 41.1430 -75.6165 163° South  Level FlightAware Approximate
Mon 02:04:00 PM 41.0897 -75.5956 164° South  Level FlightAware Approximate
Mon 02:05:00 PM 41.0354 -75.5795 190° South  Level Estimated
Mon 02:06:00 PM 40.9802 -75.5712 174° South  Level FlightAware Approximate
Mon 02:07:00 PM 40.9250 -75.5630 174° South  Level FlightAware Approximate
Mon 02:08:00 PM 40.8698 -75.5548 174° South  Level FlightAware Approximate
Mon 02:09:00 PM 40.8132 -75.5367 187° South  Level Estimated
Mon 02:10:00 PM 40.7551 -75.5339 178° South  Level FlightAware Approximate
Mon 02:11:00 PM 40.6987 -75.5149 190° South  Level Estimated
Mon 02:11:24 PM 40.6833 -75.5667 143° Southeast 234 269 5,500  Level Philadelphia TRACON
Mon 02:11:54 PM 40.6500 -75.5667 180° South 233 268 5,100 -330 Descending Philadelphia TRACON
Mon 02:12:00 PM 40.6407 -75.5195 183° South  Level FlightAware Approximate
Mon 02:12:55 PM 40.5833 -75.5667 180° South 216 249 5,000  Level Philadelphia TRACON
Mon 02:13:00 PM 40.5846 -75.4989 180° South  Level Estimated
Mon 02:14:00 PM 40.5286 -75.4784 143° Southeast  Level Estimated
Mon 02:14:00 PM 40.5167 -75.5667 180° South 205 236 5,100  Level Philadelphia TRACON
Mon 02:15:00 PM 40.4725 -75.4580 143° Southeast  Level Estimated
Mon 02:15:01 PM 40.4667 -75.5667 180° South 204 235 5,000  Level Philadelphia TRACON
Mon 02:16:00 PM 40.4165 -75.4375 143° Southeast  Level Estimated
Mon 02:16:01 PM 40.4000 -75.5500 169° South 203 234 5,100  Level Philadelphia TRACON
Mon 02:17:01 PM 40.3500 -75.5333 166° South 203 234 5,100  Level Philadelphia TRACON
Mon 02:18:01 PM 40.3000 -75.5000 153° Southeast 209 241 5,100  Level Philadelphia TRACON
Mon 02:19:01 PM 40.2500 -75.4500 143° Southeast 208 239 5,100  Level Philadelphia TRACON
Mon 02:20:01 PM 40.2167 -75.4000 131° Southeast 210 242 5,100  Level Philadelphia TRACON
Mon 02:20:55 PM 40.1667 -75.3500 143° Southeast 209 241 5,100 -200 Level Philadelphia TRACON
Mon 02:22:01 PM 40.1167 -75.3000 143° Southeast 215 247 4,700 -524 Descending Philadelphia TRACON
Mon 02:23:01 PM 40.0667 -75.2500 143° Southeast 238 274 4,000 -300 Descending Philadelphia TRACON
Mon 02:24:01 PM 40.0167 -75.2333 166° South 208 239 4,100  Climbing Philadelphia TRACON
Mon 02:25:01 PM 39.9667 -75.2000 153° Southeast 205 236 4,000 -50 Descending Philadelphia TRACON
Mon 02:26:01 PM 39.9167 -75.1667 153° Southeast 190 219 4,000 -470 Level Philadelphia TRACON
Mon 02:26:56 PM 39.8667 -75.1333 153° Southeast 195 224 3,100 -950 Descending Philadelphia TRACON
Mon 02:28:01 PM 39.8167 -75.1167 166° South 168 193 2,100 -750 Descending Philadelphia TRACON
Mon 02:28:56 PM 39.8167 -75.1833 270° West 151 174 1,600 -750 Descending Philadelphia TRACON
Mon 02:30:01 PM 39.8500 -75.2167 322° Northwest 143 165 600 -923 Descending Philadelphia TRACON

Login

Don't have an account? Register now (free) for customized features, flight alerts, and more!